Time;durP1;ratioP1;P1;durP2;ratioP2;P2;SDS_P1;SDS_P2;PMS_P1;PMS_P2;Temp;Humidity;BMP_temperature;BMP_pressure;BME280_temperature;BME280_humidity;BME280_pressure;Samples;Min_cycle;Max_cycle;Signal;HPM_P1;HPM_P2
2023/05/25 00:01:43;;;;;;;18.38;6.15;;;;;;;;;;6346776;22;20013;-94
2023/05/25 00:04:09;;;;;;;16.08;6.13;;;;;;;;;;6348870;22;20041;-93
2023/05/25 00:06:39;;;;;;;25.17;6.40;;;;;;;;;;6347137;22;20004;-92
2023/05/25 00:09:13;;;;;;;18.50;6.65;;;;;;;;;;6354311;22;20017;-93
2023/05/25 00:11:39;;;;;;;24.92;6.05;;;;;;;;;;6321875;22;20022;-92
2023/05/25 00:14:09;;;;;;;22.42;5.80;;;;;;;;;;6321193;22;20074;-92
2023/05/25 00:16:36;;;;;;;23.17;5.90;;;;;;;;;;6347935;22;20002;-93
2023/05/25 00:19:04;;;;;;;21.30;5.60;;;;;;;;;;6346139;22;20365;-92
2023/05/25 00:21:32;;;;;;;23.70;6.28;;;;;;;;;;6347853;22;20008;-93
2023/05/25 00:24:01;;;;;;;13.55;5.57;;;;;;;;;;6346958;22;20062;-93
2023/05/25 00:26:30;;;;;;;20.77;6.22;;;;;;;;;;6321517;22;20511;-94
2023/05/25 00:29:00;;;;;;;17.92;6.70;;;;;;;;;;6321502;22;20073;-92
2023/05/25 00:31:37;;;;;;;;;;;;;;;;;;;;;
2023/05/25 00:37:01;;;;;;;16.38;5.35;;;;;;;;;;6343861;22;20011;-94
2023/05/25 00:39:28;;;;;;;27.15;6.85;;;;;;;;;;6321621;22;20343;-92
2023/05/25 00:41:57;;;;;;;23.48;6.43;;;;;;;;;;6319385;22;20515;-92
2023/05/25 00:44:23;;;;;;;19.10;6.38;;;;;;;;;;6348909;22;20005;-92
2023/05/25 00:46:56;;;;;;;20.08;7.28;;;;;;;;;;6325080;22;20026;-92
2023/05/25 00:49:25;;;;;;;30.83;9.10;;;;;;;;;;6354623;22;20010;-93
2023/05/25 00:51:55;;;;;;;23.08;6.95;;;;;;;;;;6328713;22;20093;-92
2023/05/25 00:54:21;;;;;;;19.40;5.75;;;;;;;;;;6351290;22;20006;-92
2023/05/25 00:56:51;;;;;;;21.02;5.85;;;;;;;;;;6348438;22;20010;-91
2023/05/25 00:59:19;;;;;;;25.50;6.80;;;;;;;;;;6347975;22;20006;-92
2023/05/25 01:01:46;;;;;;;35.53;8.00;;;;;;;;;;6348524;22;20407;-92
2023/05/25 01:04:15;;;;;;;29.02;6.82;;;;;;;;;;6347154;22;20103;-94
2023/05/25 01:06:44;;;;;;;22.63;7.28;;;;;;;;;;6346643;22;20342;-93
2023/05/25 01:09:19;;;;;;;21.95;7.25;;;;;;;;;;6349813;22;20549;-93
2023/05/25 01:11:52;;;;;;;17.27;7.13;;;;;;;;;;6346493;22;20420;-94
2023/05/25 01:14:21;;;;;;;18.65;6.68;;;;;;;;;;6345426;22;20014;-94
2023/05/25 01:16:51;;;;;;;17.63;6.13;;;;;;;;;;6346717;22;20055;-93
2023/05/25 01:19:17;;;;;;;25.40;7.43;;;;;;;;;;6321529;22;20010;-93
2023/05/25 01:21:49;;;;;;;25.02;6.75;;;;;;;;;;6320491;22;20026;-94
2023/05/25 01:24:21;;;;;;;19.67;6.78;;;;;;;;;;6347788;22;20006;-94
2023/05/25 01:26:57;;;;;;;17.90;6.18;;;;;;;;;;6375830;22;20002;-93
2023/05/25 01:29:26;;;;;;;24.55;7.40;;;;;;;;;;6348070;22;20030;-92
2023/05/25 01:31:53;;;;;;;23.88;7.00;;;;;;;;;;6349408;22;20002;-94
2023/05/25 01:34:33;;;;;;;18.85;6.97;;;;;;;;;;6378720;22;20002;-94
2023/05/25 01:37:03;;;;;;;23.83;7.05;;;;;;;;;;6334392;22;20017;-94
2023/05/25 01:39:35;;;;;;;21.35;7.43;;;;;;;;;;6362027;22;20082;-94
2023/05/25 01:42:01;;;;;;;22.95;7.60;;;;;;;;;;6363238;22;20018;-93
2023/05/25 01:44:30;;;;;;;28.60;8.35;;;;;;;;;;6362044;22;20551;-92
2023/05/25 01:47:04;;;;;;;27.40;7.18;;;;;;;;;;6363078;22;20006;-93
2023/05/25 01:49:34;;;;;;;24.35;7.75;;;;;;;;;;6360312;22;20006;-93
2023/05/25 01:52:12;;;;;;;23.63;6.63;;;;;;;;;;6388259;22;20028;-92
2023/05/25 01:54:41;;;;;;;16.95;6.57;;;;;;;;;;6362197;22;20006;-93
2023/05/25 01:57:13;;;;;;;21.20;6.82;;;;;;;;;;6353002;22;20010;-93
2023/05/25 01:59:41;;;;;;;16.40;7.35;;;;;;;;;;6349646;22;20022;-93
2023/05/25 02:02:09;;;;;;;25.15;6.97;;;;;;;;;;6347396;22;20003;-93
2023/05/25 02:04:36;;;;;;;19.35;7.40;;;;;;;;;;6345423;22;20006;-93
2023/05/25 02:07:06;;;;;;;27.27;7.20;;;;;;;;;;6320216;22;20042;-93
2023/05/25 02:09:32;;;;;;;21.10;7.57;;;;;;;;;;6347505;22;20034;-93
2023/05/25 02:12:01;;;;;;;20.58;7.85;;;;;;;;;;6320697;22;20375;-93
2023/05/25 02:14:27;;;;;;;30.67;7.75;;;;;;;;;;6319406;22;20014;-93
2023/05/25 02:16:54;;;;;;;17.25;7.80;;;;;;;;;;6345732;22;20026;-93
2023/05/25 02:19:20;;;;;;;22.08;8.25;;;;;;;;;;6319649;22;20087;-93
2023/05/25 02:21:46;;;;;;;18.02;7.20;;;;;;;;;;6346105;22;20116;-93
2023/05/25 02:24:12;;;;;;;27.20;7.70;;;;;;;;;;6320310;22;20458;-94
2023/05/25 02:26:42;;;;;;;20.50;7.95;;;;;;;;;;6319566;22;20029;-94
2023/05/25 02:29:08;;;;;;;21.75;7.55;;;;;;;;;;6345534;22;20002;-93
2023/05/25 02:31:34;;;;;;;20.70;7.40;;;;;;;;;;6319576;22;20078;-93
2023/05/25 02:34:00;;;;;;;24.95;7.72;;;;;;;;;;6345946;22;20009;-94
2023/05/25 02:36:36;;;;;;;19.30;7.70;;;;;;;;;;6320204;22;20026;-93
2023/05/25 02:39:02;;;;;;;20.33;6.68;;;;;;;;;;6320521;22;20018;-93
2023/05/25 02:41:35;;;;;;;22.73;7.43;;;;;;;;;;6345882;22;19999;-94
2023/05/25 02:44:01;;;;;;;31.23;7.60;;;;;;;;;;6346441;22;20016;-93
2023/05/25 02:46:27;;;;;;;25.23;7.57;;;;;;;;;;6319993;22;20007;-93
2023/05/25 02:49:03;;;;;;;21.80;7.85;;;;;;;;;;6320106;22;20028;-93
2023/05/25 02:51:29;;;;;;;21.15;7.78;;;;;;;;;;6346034;22;20014;-94
2023/05/25 02:53:55;;;;;;;33.35;7.97;;;;;;;;;;6321477;22;20097;-94
2023/05/25 02:56:21;;;;;;;19.67;7.53;;;;;;;;;;6321891;22;20002;-93
2023/05/25 02:58:48;;;;;;;30.52;8.85;;;;;;;;;;6320652;22;20014;-93
2023/05/25 03:01:17;;;;;;;17.33;6.90;;;;;;;;;;6347293;22;20033;-94
2023/05/25 03:03:45;;;;;;;23.58;6.93;;;;;;;;;;6346726;22;20494;-93
2023/05/25 03:06:12;;;;;;;22.05;7.63;;;;;;;;;;6320934;22;20329;-93
2023/05/25 03:08:41;;;;;;;24.33;7.80;;;;;;;;;;6348681;22;20002;-92
2023/05/25 03:11:10;;;;;;;29.08;6.93;;;;;;;;;;6348539;22;20097;-95
2023/05/25 03:13:37;;;;;;;24.45;6.65;;;;;;;;;;6348116;22;20082;-94
2023/05/25 03:16:04;;;;;;;20.40;7.35;;;;;;;;;;6323174;22;20016;-93
2023/05/25 03:18:33;;;;;;;24.02;7.50;;;;;;;;;;6348326;22;20011;-93
2023/05/25 03:20:59;;;;;;;23.67;7.35;;;;;;;;;;6322299;22;20006;-93
2023/05/25 03:23:25;;;;;;;19.05;7.50;;;;;;;;;;6322060;22;20006;-93
2023/05/25 03:25:52;;;;;;;23.98;7.18;;;;;;;;;;6322740;22;20160;-93
2023/05/25 03:28:21;;;;;;;23.15;7.60;;;;;;;;;;6347158;22;20011;-93
2023/05/25 03:31:02;;;;;;;19.02;8.20;;;;;;;;;;6321577;22;20010;-93
2023/05/25 03:33:34;;;;;;;21.42;7.85;;;;;;;;;;6325307;22;20030;-95
2023/05/25 03:36:01;;;;;;;17.75;6.70;;;;;;;;;;6348706;22;20009;-93
2023/05/25 03:38:27;;;;;;;18.55;6.63;;;;;;;;;;6348079;22;20006;-93
2023/05/25 03:40:53;;;;;;;37.08;9.13;;;;;;;;;;6322718;22;20003;-93
2023/05/25 03:43:20;;;;;;;20.63;6.82;;;;;;;;;;6320796;22;20445;-94
2023/05/25 03:45:46;;;;;;;23.48;7.80;;;;;;;;;;6321968;22;19999;-93
2023/05/25 03:48:39;;;;;;;24.13;7.25;;;;;;;;;;6320251;22;20444;-94
2023/05/25 03:51:05;;;;;;;22.98;6.88;;;;;;;;;;6347411;22;20006;-94
2023/05/25 03:53:31;;;;;;;23.67;7.57;;;;;;;;;;6321422;22;20006;-92
2023/05/25 03:55:58;;;;;;;26.85;7.35;;;;;;;;;;6321035;22;20010;-94
2023/05/25 03:58:51;;;;;;;25.00;7.97;;;;;;;;;;6346918;22;20421;-93
2023/05/25 04:01:30;;;;;;;24.70;7.60;;;;;;;;;;6342216;22;19999;-92
2023/05/25 04:03:59;;;;;;;24.33;7.47;;;;;;;;;;6347766;22;20348;-94
2023/05/25 04:06:28;;;;;;;33.78;7.22;;;;;;;;;;6345893;22;20455;-93
2023/05/25 04:08:58;;;;;;;25.77;7.20;;;;;;;;;;6348679;22;20012;-93
2023/05/25 04:11:24;;;;;;;30.48;7.47;;;;;;;;;;6347883;22;20037;-93
2023/05/25 04:13:54;;;;;;;17.48;7.03;;;;;;;;;;6320588;22;20014;-93
2023/05/25 04:16:20;;;;;;;31.70;8.75;;;;;;;;;;6347648;22;20128;-94
2023/05/25 04:18:47;;;;;;;26.83;8.43;;;;;;;;;;6347595;22;20408;-92
2023/05/25 04:24:05;;;;;;;26.10;7.95;;;;;;;;;;6353620;22;20024;-94
2023/05/25 04:26:31;;;;;;;25.75;8.52;;;;;;;;;;6347293;22;19999;-93
2023/05/25 04:29:00;;;;;;;25.30;7.93;;;;;;;;;;6323204;22;20474;-93
2023/05/25 04:31:34;;;;;;;30.35;8.60;;;;;;;;;;6349658;22;20056;-93
2023/05/25 04:34:01;;;;;;;24.45;8.45;;;;;;;;;;6348940;22;20010;-93
2023/05/25 04:36:31;;;;;;;26.23;8.45;;;;;;;;;;6349265;22;20002;-93
2023/05/25 04:39:01;;;;;;;30.48;8.80;;;;;;;;;;6349526;22;20117;-93
2023/05/25 04:41:32;;;;;;;27.35;9.00;;;;;;;;;;6324818;22;20010;-92
2023/05/25 04:43:58;;;;;;;24.25;9.13;;;;;;;;;;6324663;22;20003;-93
2023/05/25 04:46:45;;;;;;;36.85;9.45;;;;;;;;;;6325123;22;20446;-93
2023/05/25 04:49:12;;;;;;;40.22;11.52;;;;;;;;;;6349878;22;20011;-93
2023/05/25 04:51:38;;;;;;;25.02;9.95;;;;;;;;;;6322295;22;20175;-93
2023/05/25 04:54:07;;;;;;;34.17;10.45;;;;;;;;;;6349827;22;20447;-92
2023/05/25 04:56:36;;;;;;;30.52;9.00;;;;;;;;;;6348951;22;20006;-93
2023/05/25 04:59:07;;;;;;;25.38;8.70;;;;;;;;;;6350505;22;20439;-93
2023/05/25 05:01:39;;;;;;;28.25;8.57;;;;;;;;;;6349932;22;20325;-93
2023/05/25 05:04:08;;;;;;;22.80;8.07;;;;;;;;;;6347426;22;20006;-93
2023/05/25 05:06:38;;;;;;;21.10;8.73;;;;;;;;;;6348123;22;20014;-94
2023/05/25 05:09:04;;;;;;;31.10;8.77;;;;;;;;;;6348340;22;20028;-93
2023/05/25 05:11:30;;;;;;;34.83;10.88;;;;;;;;;;6320537;22;20006;-93
2023/05/25 05:13:57;;;;;;;23.80;8.40;;;;;;;;;;6346262;22;20089;-92
2023/05/25 05:16:47;;;;;;;18.67;7.72;;;;;;;;;;6346691;22;20018;-94
2023/05/25 05:19:18;;;;;;;20.60;6.70;;;;;;;;;;6289654;22;20020;-93
2023/05/25 05:21:50;;;;;;;20.08;6.35;;;;;;;;;;6321534;22;20052;-94
2023/05/25 05:24:16;;;;;;;18.27;6.38;;;;;;;;;;6321807;22;20044;-93
2023/05/25 05:27:13;;;;;;;14.05;6.20;;;;;;;;;;6320853;22;20006;-93
2023/05/25 05:29:45;;;;;;;18.75;5.65;;;;;;;;;;6369614;22;20006;-93
2023/05/25 05:32:11;;;;;;;21.58;5.72;;;;;;;;;;6319710;22;20014;-93
2023/05/25 05:35:01;;;;;;;19.38;7.18;;;;;;;;;;6323022;22;20036;-93
2023/05/25 05:37:40;;;;;;;19.13;5.25;;;;;;;;;;6310714;22;20344;-94
2023/05/25 05:40:06;;;;;;;18.58;5.25;;;;;;;;;;6280032;22;20023;-94
2023/05/25 05:42:36;;;;;;;9.85;4.53;;;;;;;;;;6294478;22;20412;-93
2023/05/25 05:45:06;;;;;;;15.13;5.18;;;;;;;;;;6343117;22;20265;-93
2023/05/25 05:47:32;;;;;;;15.65;4.55;;;;;;;;;;6318391;22;20026;-93
2023/05/25 05:49:58;;;;;;;17.52;4.65;;;;;;;;;;6344160;22;20002;-92
2023/05/25 05:52:36;;;;;;;15.02;4.78;;;;;;;;;;6318680;22;20028;-93
2023/05/25 05:55:02;;;;;;;16.30;4.15;;;;;;;;;;6321035;22;20011;-93
2023/05/25 05:57:29;;;;;;;14.45;4.47;;;;;;;;;;6319075;22;20003;-92
2023/05/25 05:59:58;;;;;;;14.98;4.10;;;;;;;;;;6317775;22;20373;-93
2023/05/25 06:02:30;;;;;;;15.93;3.30;;;;;;;;;;6344068;22;20061;-93
2023/05/25 06:04:56;;;;;;;21.95;3.92;;;;;;;;;;6319645;22;20002;-93
2023/05/25 06:07:27;;;;;;;16.70;4.85;;;;;;;;;;6345727;22;20394;-92
2023/05/25 06:10:13;;;;;;;19.33;3.65;;;;;;;;;;6322949;22;20022;-93
2023/05/25 06:12:39;;;;;;;12.80;3.30;;;;;;;;;;6328212;22;20010;-93
2023/05/25 06:15:06;;;;;;;25.27;4.03;;;;;;;;;;6332905;22;20009;-92
2023/05/25 06:17:32;;;;;;;21.35;5.15;;;;;;;;;;6362901;22;20006;-93
2023/05/25 06:19:58;;;;;;;14.50;3.90;;;;;;;;;;6335866;22;20009;-93
2023/05/25 06:22:27;;;;;;;21.77;4.10;;;;;;;;;;6337489;22;20006;-94
2023/05/25 06:24:53;;;;;;;18.00;3.90;;;;;;;;;;6335989;22;20003;-92
2023/05/25 06:27:21;;;;;;;16.50;4.05;;;;;;;;;;6335814;22;20070;-94
2023/05/25 06:29:54;;;;;;;19.38;4.00;;;;;;;;;;6388745;22;20005;-93
2023/05/25 06:32:21;;;;;;;24.33;4.43;;;;;;;;;;6332895;22;20006;-94
2023/05/25 06:34:47;;;;;;;15.52;4.30;;;;;;;;;;6326667;22;20007;-94
2023/05/25 06:37:14;;;;;;;16.73;4.13;;;;;;;;;;6325389;22;20006;-94
2023/05/25 06:39:41;;;;;;;22.55;4.78;;;;;;;;;;6323296;22;20232;-94
2023/05/25 06:42:08;;;;;;;18.45;5.47;;;;;;;;;;6322101;22;20049;-93
2023/05/25 06:44:35;;;;;;;16.98;3.75;;;;;;;;;;6347584;22;20013;-94
2023/05/25 06:47:04;;;;;;;14.85;3.88;;;;;;;;;;6322154;22;20003;-94
2023/05/25 06:49:31;;;;;;;19.02;4.00;;;;;;;;;;6346892;22;20008;-94
2023/05/25 06:51:57;;;;;;;18.88;4.20;;;;;;;;;;6346430;22;20070;-95
2023/05/25 06:54:33;;;;;;;23.02;4.18;;;;;;;;;;6319955;22;20011;-94
2023/05/25 06:57:00;;;;;;;25.13;4.18;;;;;;;;;;6320630;22;20037;-94
2023/05/25 06:59:26;;;;;;;22.10;4.43;;;;;;;;;;6318307;22;20006;-93
2023/05/25 07:01:58;;;;;;;19.38;3.85;;;;;;;;;;6346200;22;20024;-93
2023/05/25 07:04:27;;;;;;;21.75;4.65;;;;;;;;;;6321325;22;20008;-94
2023/05/25 07:07:03;;;;;;;22.17;4.57;;;;;;;;;;6345673;22;20014;-94
2023/05/25 07:09:29;;;;;;;19.20;4.55;;;;;;;;;;6342724;22;20063;-94
2023/05/25 07:11:55;;;;;;;21.10;3.85;;;;;;;;;;6345831;22;20011;-94
2023/05/25 07:14:21;;;;;;;27.45;4.72;;;;;;;;;;6319002;22;20006;-94
2023/05/25 07:16:54;;;;;;;34.05;4.40;;;;;;;;;;6319585;22;20014;-94
2023/05/25 07:19:23;;;;;;;29.75;5.40;;;;;;;;;;6344962;22;20010;-95
2023/05/25 07:21:49;;;;;;;16.38;3.92;;;;;;;;;;6319766;22;20094;-94
2023/05/25 07:27:07;;;;;;;25.08;4.45;;;;;;;;;;6372416;22;20017;-95
2023/05/25 07:29:33;;;;;;;19.33;4.47;;;;;;;;;;6344412;22;20190;-93
2023/05/25 07:32:02;;;;;;;23.00;4.85;;;;;;;;;;6345774;22;20062;-95
2023/05/25 07:34:32;;;;;;;22.60;5.05;;;;;;;;;;6319622;22;20066;-95
2023/05/25 07:36:58;;;;;;;19.25;4.07;;;;;;;;;;6319642;22;20014;-95
2023/05/25 07:39:24;;;;;;;19.30;4.43;;;;;;;;;;6320203;22;20013;-94
2023/05/25 07:41:55;;;;;;;22.00;3.72;;;;;;;;;;6346557;22;19998;-95
2023/05/25 07:44:24;;;;;;;30.88;4.30;;;;;;;;;;6321290;22;20381;-95
2023/05/25 07:46:50;;;;;;;26.10;5.32;;;;;;;;;;6319609;22;20017;-95
2023/05/25 07:49:24;;;;;;;24.30;4.20;;;;;;;;;;6321426;22;20006;-96
2023/05/25 07:51:53;;;;;;;29.85;4.43;;;;;;;;;;6345148;22;20017;-95
2023/05/25 07:57:15;;;;;;;14.25;3.88;;;;;;;;;;6325772;22;20420;-95
2023/05/25 07:59:44;;;;;;;25.77;6.60;;;;;;;;;;6320951;22;20010;-94
2023/05/25 08:02:17;;;;;;;20.00;4.38;;;;;;;;;;6346625;22;20002;-94
2023/05/25 08:04:52;;;;;;;18.67;3.88;;;;;;;;;;6320834;22;20002;-95
2023/05/25 08:07:19;;;;;;;21.38;4.78;;;;;;;;;;6322581;22;20002;-95
2023/05/25 08:09:46;;;;;;;20.45;4.90;;;;;;;;;;6348481;22;20011;-95
2023/05/25 08:12:12;;;;;;;29.48;7.35;;;;;;;;;;6347474;22;20010;-95
2023/05/25 08:14:41;;;;;;;15.40;4.55;;;;;;;;;;6346415;22;20343;-95
2023/05/25 08:17:19;;;;;;;18.77;4.10;;;;;;;;;;6321880;22;20010;-95
2023/05/25 08:19:45;;;;;;;18.55;4.20;;;;;;;;;;6347716;22;20010;-95
2023/05/25 08:22:26;;;;;;;30.80;5.38;;;;;;;;;;6348557;22;20385;-94
2023/05/25 08:24:53;;;;;;;23.23;4.85;;;;;;;;;;6322384;22;20010;-94
2023/05/25 08:27:19;;;;;;;23.95;4.93;;;;;;;;;;6346497;22;20752;-95
2023/05/25 08:29:45;;;;;;;25.05;4.55;;;;;;;;;;6323338;22;20069;-96
2023/05/25 08:32:21;;;;;;;19.10;4.40;;;;;;;;;;6322283;22;20014;-95
2023/05/25 08:34:47;;;;;;;15.32;3.85;;;;;;;;;;6323163;22;20570;-94
2023/05/25 08:37:18;;;;;;;23.98;4.88;;;;;;;;;;6324804;22;20002;-94
2023/05/25 08:39:47;;;;;;;28.30;5.43;;;;;;;;;;6349318;22;20022;-94
2023/05/25 08:42:13;;;;;;;19.73;4.82;;;;;;;;;;6327297;22;20075;-94
2023/05/25 08:44:51;;;;;;;21.17;3.72;;;;;;;;;;6326972;22;20007;-94
2023/05/25 08:47:21;;;;;;;27.50;5.40;;;;;;;;;;6331185;22;20006;-96
2023/05/25 08:49:52;;;;;;;21.90;4.28;;;;;;;;;;6354986;22;20014;-93
2023/05/25 08:52:21;;;;;;;20.70;3.88;;;;;;;;;;6356914;22;19998;-93
2023/05/25 08:54:50;;;;;;;21.67;5.05;;;;;;;;;;6355954;22;20005;-95
2023/05/25 08:57:31;;;;;;;20.25;4.25;;;;;;;;;;6357009;22;20062;-93
2023/05/25 09:00:17;;;;;;;18.70;4.10;;;;;;;;;;6356884;22;20060;-94
2023/05/25 09:02:52;;;;;;;19.80;5.18;;;;;;;;;;6359875;22;20006;-93
2023/05/25 09:05:18;;;;;;;16.25;4.57;;;;;;;;;;6355062;22;20002;-94
2023/05/25 09:07:46;;;;;;;24.05;4.15;;;;;;;;;;6347959;22;20003;-94
2023/05/25 09:10:12;;;;;;;18.33;4.20;;;;;;;;;;6350296;22;20333;-94
2023/05/25 09:12:38;;;;;;;17.10;4.25;;;;;;;;;;6323460;22;20106;-94
2023/05/25 09:15:13;;;;;;;22.50;5.30;;;;;;;;;;6346867;22;20416;-93
2023/05/25 09:17:58;;;;;;;15.05;4.15;;;;;;;;;;6348794;22;20013;-94
2023/05/25 09:20:30;;;;;;;13.52;3.67;;;;;;;;;;6347761;22;20006;-94
2023/05/25 09:23:05;;;;;;;18.23;4.78;;;;;;;;;;6346747;22;20306;-94
2023/05/25 09:25:32;;;;;;;16.92;3.63;;;;;;;;;;6345760;22;19998;-94
2023/05/25 09:28:02;;;;;;;21.25;4.25;;;;;;;;;;6344658;22;20056;-94
2023/05/25 09:30:31;;;;;;;16.60;4.32;;;;;;;;;;6319553;22;20060;-93
2023/05/25 09:33:16;;;;;;;25.02;4.15;;;;;;;;;;6320932;22;20022;-95
2023/05/25 09:41:42;;;;;;;18.98;3.95;;;;;;;;;;6346018;22;20059;-92
2023/05/25 09:44:10;;;;;;;22.17;4.45;;;;;;;;;;6326257;22;20003;-94
2023/05/25 09:46:43;;;;;;;14.73;4.45;;;;;;;;;;6323440;22;20009;-95
2023/05/25 09:49:10;;;;;;;21.10;4.55;;;;;;;;;;6349300;22;20010;-94
2023/05/25 09:51:39;;;;;;;16.45;5.28;;;;;;;;;;6349777;22;20057;-95
2023/05/25 09:54:08;;;;;;;21.15;4.65;;;;;;;;;;6323129;22;20062;-94
2023/05/25 09:56:47;;;;;;;23.27;4.50;;;;;;;;;;6346992;22;20154;-94
2023/05/25 09:59:13;;;;;;;23.90;4.80;;;;;;;;;;6346843;22;20002;-95
2023/05/25 10:01:51;;;;;;;15.55;4.90;;;;;;;;;;6320532;22;20006;-95
2023/05/25 10:04:17;;;;;;;17.83;4.10;;;;;;;;;;6345023;22;19998;-95
2023/05/25 10:06:48;;;;;;;25.17;4.18;;;;;;;;;;6318956;22;20006;-94
2023/05/25 10:09:17;;;;;;;21.00;5.55;;;;;;;;;;6344227;22;20006;-96
2023/05/25 10:12:11;;;;;;;23.65;5.75;;;;;;;;;;6346443;22;20018;-96
2023/05/25 10:14:48;;;;;;;24.40;4.85;;;;;;;;;;6290307;22;20006;-94
2023/05/25 10:17:19;;;;;;;19.85;4.50;;;;;;;;;;6348346;22;20360;-95
2023/05/25 10:20:10;;;;;;;22.20;4.18;;;;;;;;;;6347511;22;20002;-94
2023/05/25 10:22:43;;;;;;;16.92;4.85;;;;;;;;;;6347405;22;20478;-95
2023/05/25 10:25:17;;;;;;;22.67;5.85;;;;;;;;;;6347535;22;20030;-95
2023/05/25 10:27:48;;;;;;;24.17;5.15;;;;;;;;;;6350090;22;20006;-95
2023/05/25 10:30:15;;;;;;;25.85;4.45;;;;;;;;;;6349962;22;20007;-95
2023/05/25 10:32:42;;;;;;;21.35;6.03;;;;;;;;;;6349773;22;20009;-96
2023/05/25 10:35:12;;;;;;;24.55;5.68;;;;;;;;;;6348806;22;20002;-94
2023/05/25 10:37:40;;;;;;;24.67;4.38;;;;;;;;;;6322570;22;20006;-95
2023/05/25 10:40:10;;;;;;;20.20;4.80;;;;;;;;;;6347857;22;20043;-95
2023/05/25 10:42:39;;;;;;;25.42;6.70;;;;;;;;;;6346160;22;20010;-95
2023/05/25 10:45:07;;;;;;;18.48;4.65;;;;;;;;;;6322688;22;20024;-96
2023/05/25 10:47:35;;;;;;;15.23;4.18;;;;;;;;;;6346330;22;20340;-94
2023/05/25 10:50:04;;;;;;;19.23;5.82;;;;;;;;;;6348559;22;20348;-95
2023/05/25 10:52:34;;;;;;;15.98;3.95;;;;;;;;;;6324492;22;20002;-95
2023/05/25 10:55:08;;;;;;;25.80;4.28;;;;;;;;;;6330598;22;20002;-95
2023/05/25 10:57:34;;;;;;;19.52;4.55;;;;;;;;;;6330517;22;20013;-93
2023/05/25 11:00:12;;;;;;;19.73;5.43;;;;;;;;;;6330762;22;20011;-95
2023/05/25 11:02:54;;;;;;;21.67;5.55;;;;;;;;;;6359326;22;20003;-96
2023/05/25 11:05:39;;;;;;;15.07;4.22;;;;;;;;;;6358075;22;20012;-93
2023/05/25 11:08:07;;;;;;;19.42;4.03;;;;;;;;;;6358108;22;20451;-94
2023/05/25 11:10:49;;;;;;;18.08;4.93;;;;;;;;;;6361726;22;20023;-95
2023/05/25 11:13:34;;;;;;;18.48;4.50;;;;;;;;;;6360634;22;20029;-94
2023/05/25 11:16:25;;;;;;;18.27;4.43;;;;;;;;;;6364417;22;20036;-93
2023/05/25 11:19:01;;;;;;;25.65;4.88;;;;;;;;;;6362194;22;20073;-94
2023/05/25 11:21:31;;;;;;;19.17;4.35;;;;;;;;;;6333837;22;20017;-95
2023/05/25 11:24:11;;;;;;;14.88;3.60;;;;;;;;;;6358970;22;19990;-96
2023/05/25 11:29:26;;;;;;;24.15;4.70;;;;;;;;;;6309562;22;20027;-94
2023/05/25 11:32:14;;;;;;;21.58;4.70;;;;;;;;;;6280871;22;20386;-94
2023/05/25 11:34:45;;;;;;;22.38;4.97;;;;;;;;;;6280736;22;20117;-94
2023/05/25 11:37:14;;;;;;;19.08;3.92;;;;;;;;;;6315570;22;20019;-93
2023/05/25 11:39:42;;;;;;;18.88;5.32;;;;;;;;;;6253199;22;20453;-94
2023/05/25 11:42:10;;;;;;;17.40;4.93;;;;;;;;;;6249287;22;20075;-94
2023/05/25 11:44:47;;;;;;;21.08;5.13;;;;;;;;;;6247273;22;20003;-94
2023/05/25 11:47:17;;;;;;;29.13;4.72;;;;;;;;;;6253491;22;20046;-93
2023/05/25 11:49:48;;;;;;;27.50;5.88;;;;;;;;;;6251286;22;20011;-96
2023/05/25 11:52:22;;;;;;;23.13;5.90;;;;;;;;;;6249547;22;20011;-93
2023/05/25 11:54:51;;;;;;;30.45;5.05;;;;;;;;;;6245526;22;20018;-92
2023/05/25 11:57:25;;;;;;;20.35;4.50;;;;;;;;;;6248222;22;20370;-93
2023/05/25 11:59:56;;;;;;;21.77;4.80;;;;;;;;;;6244708;22;20067;-92
2023/05/25 12:02:23;;;;;;;20.30;5.03;;;;;;;;;;6246861;22;20003;-93
2023/05/25 12:04:54;;;;;;;14.82;4.20;;;;;;;;;;6252326;22;20011;-92
2023/05/25 12:07:25;;;;;;;18.15;4.30;;;;;;;;;;6245850;22;20513;-93
2023/05/25 12:09:52;;;;;;;28.02;5.75;;;;;;;;;;6246531;22;20014;-92
2023/05/25 12:12:22;;;;;;;25.17;5.90;;;;;;;;;;6251143;22;20052;-93
2023/05/25 12:14:54;;;;;;;23.75;5.10;;;;;;;;;;6253544;22;20330;-92
2023/05/25 12:17:24;;;;;;;23.95;6.85;;;;;;;;;;6257434;22;20008;-93
2023/05/25 12:19:52;;;;;;;24.90;5.03;;;;;;;;;;6251267;22;20012;-93
2023/05/25 12:22:19;;;;;;;24.25;5.00;;;;;;;;;;6245699;22;20004;-92
2023/05/25 12:24:48;;;;;;;21.73;5.38;;;;;;;;;;6246708;22;20095;-92
2023/05/25 12:27:34;;;;;;;23.88;4.65;;;;;;;;;;6244312;22;20499;-93
2023/05/25 12:30:00;;;;;;;26.15;5.03;;;;;;;;;;6254903;22;20505;-94
2023/05/25 12:32:29;;;;;;;26.35;6.47;;;;;;;;;;6276339;22;20008;-92
2023/05/25 12:35:02;;;;;;;21.67;5.32;;;;;;;;;;6280161;22;19999;-92
2023/05/25 12:37:28;;;;;;;23.00;4.75;;;;;;;;;;6249991;22;20012;-92
2023/05/25 12:39:56;;;;;;;24.08;5.80;;;;;;;;;;6245332;22;20012;-92
2023/05/25 12:42:25;;;;;;;25.33;5.80;;;;;;;;;;6248024;22;20495;-92
2023/05/25 12:44:54;;;;;;;24.95;6.18;;;;;;;;;;6245683;22;20078;-92
2023/05/25 12:47:27;;;;;;;17.88;5.40;;;;;;;;;;6246894;22;20049;-92
2023/05/25 12:50:15;;;;;;;23.25;5.18;;;;;;;;;;6246261;22;20012;-93
2023/05/25 12:52:48;;;;;;;19.48;4.93;;;;;;;;;;6246291;22;20102;-93
2023/05/25 12:55:33;;;;;;;26.50;4.65;;;;;;;;;;6258594;22;20022;-92
2023/05/25 12:58:04;;;;;;;33.00;4.85;;;;;;;;;;6244960;22;20015;-92
2023/05/25 13:00:34;;;;;;;15.48;4.45;;;;;;;;;;6244665;22;20015;-93
2023/05/25 13:03:01;;;;;;;18.38;4.53;;;;;;;;;;6249966;22;20015;-93
2023/05/25 13:05:32;;;;;;;22.85;4.95;;;;;;;;;;6246461;22;20008;-93
2023/05/25 13:08:08;;;;;;;23.33;5.53;;;;;;;;;;6246067;22;20447;-92
2023/05/25 13:10:36;;;;;;;19.50;4.72;;;;;;;;;;6248485;22;20011;-93
2023/05/25 13:13:03;;;;;;;28.80;5.47;;;;;;;;;;6246553;22;20707;-95
2023/05/25 13:15:39;;;;;;;18.38;5.20;;;;;;;;;;6246977;22;20011;-95
2023/05/25 13:18:05;;;;;;;16.13;4.90;;;;;;;;;;6255875;22;20008;-95
2023/05/25 13:20:31;;;;;;;20.20;5.78;;;;;;;;;;6246485;22;20459;-95
2023/05/25 13:22:57;;;;;;;23.48;4.57;;;;;;;;;;6245370;22;20114;-95
2023/05/25 13:25:47;;;;;;;32.30;4.90;;;;;;;;;;6248204;22;20091;-93
2023/05/25 13:28:20;;;;;;;22.42;5.05;;;;;;;;;;6255150;22;20019;-94
2023/05/25 13:30:53;;;;;;;27.08;5.35;;;;;;;;;;6250161;23;20008;-95
2023/05/25 13:33:38;;;;;;;17.90;4.82;;;;;;;;;;6245065;23;20004;-95
2023/05/25 13:36:07;;;;;;;18.35;4.47;;;;;;;;;;6244447;23;20016;-95
2023/05/25 13:38:34;;;;;;;21.75;4.80;;;;;;;;;;6240394;22;20392;-96
2023/05/25 13:41:09;;;;;;;16.08;4.93;;;;;;;;;;6242455;23;20008;-95
2023/05/25 13:43:36;;;;;;;22.75;5.57;;;;;;;;;;6239242;23;20083;-95
2023/05/25 13:46:02;;;;;;;22.20;5.40;;;;;;;;;;6241762;23;20496;-95
2023/05/25 13:48:31;;;;;;;19.60;5.28;;;;;;;;;;6239818;23;20012;-95
2023/05/25 13:50:58;;;;;;;28.85;6.28;;;;;;;;;;6242378;23;20096;-95
2023/05/25 13:53:25;;;;;;;19.85;5.50;;;;;;;;;;6240509;23;20070;-96
2023/05/25 13:55:51;;;;;;;29.83;5.13;;;;;;;;;;6248716;23;20004;-96
2023/05/25 14:01:16;;;;;;;29.98;6.03;;;;;;;;;;6217021;23;20012;-95
2023/05/25 14:04:02;;;;;;;24.27;5.82;;;;;;;;;;6239614;23;20004;-95
2023/05/25 14:09:29;;;;;;;23.73;4.90;;;;;;;;;;6242720;23;20065;-95
2023/05/25 14:11:55;;;;;;;22.90;5.65;;;;;;;;;;6242329;23;20031;-95
2023/05/25 14:14:35;;;;;;;;;;;;;;;;;;;;;
2023/05/25 14:17:01;;;;;;;20.67;5.40;;;;;;;;;;6262670;22;20059;-95
2023/05/25 14:19:40;;;;;;;16.92;4.72;;;;;;;;;;6240580;23;20533;-96
2023/05/25 14:22:13;;;;;;;18.23;4.88;;;;;;;;;;6243255;23;20470;-96
2023/05/25 14:24:39;;;;;;;19.88;5.10;;;;;;;;;;6241182;23;20036;-94
2023/05/25 14:27:08;;;;;;;16.17;4.85;;;;;;;;;;6242882;23;20011;-96
2023/05/25 14:29:37;;;;;;;23.90;5.00;;;;;;;;;;6221466;22;20024;-95
2023/05/25 14:32:10;;;;;;;11.48;4.07;;;;;;;;;;6185577;23;20072;-96
2023/05/25 14:34:58;;;;;;;29.63;8.25;;;;;;;;;;6210221;23;20454;-95
2023/05/25 14:37:23;;;;;;;17.63;4.97;;;;;;;;;;6230391;23;20390;-96
2023/05/25 14:39:52;;;;;;;25.23;4.30;;;;;;;;;;6212155;23;20019;-95
2023/05/25 14:42:22;;;;;;;23.38;6.60;;;;;;;;;;6210375;23;20009;-96
2023/05/25 14:44:52;;;;;;;17.02;4.80;;;;;;;;;;6209990;23;20025;-95
2023/05/25 14:47:18;;;;;;;21.63;4.95;;;;;;;;;;6209788;23;20004;-95
2023/05/25 14:49:54;;;;;;;26.70;5.47;;;;;;;;;;6206259;23;20005;-95
2023/05/25 14:52:20;;;;;;;19.77;4.55;;;;;;;;;;6214896;23;20020;-94
2023/05/25 14:54:47;;;;;;;17.92;4.40;;;;;;;;;;6210035;23;20058;-94
2023/05/25 14:57:31;;;;;;;20.08;4.68;;;;;;;;;;6212165;23;20036;-95
2023/05/25 14:59:57;;;;;;;21.75;5.22;;;;;;;;;;6211366;23;20386;-94
2023/05/25 15:02:26;;;;;;;23.42;4.72;;;;;;;;;;6210076;23;20379;-95
2023/05/25 15:04:56;;;;;;;25.23;5.50;;;;;;;;;;6211221;23;20009;-94
2023/05/25 15:07:22;;;;;;;23.38;4.95;;;;;;;;;;6210824;23;20008;-94
2023/05/25 15:09:48;;;;;;;18.00;4.68;;;;;;;;;;6210371;23;20461;-94
2023/05/25 15:12:15;;;;;;;28.42;5.03;;;;;;;;;;6212575;23;20016;-94
2023/05/25 15:17:37;;;;;;;24.15;4.50;;;;;;;;;;6155982;23;20047;-94
2023/05/25 15:20:04;;;;;;;20.17;5.45;;;;;;;;;;6209434;23;20066;-94